createdAt,value
2023-10-30T00:00:13.242Z,35.38
2023-10-30T00:01:14.154Z,35.36
2023-10-30T00:02:13.156Z,35.40
2023-10-30T00:03:13.230Z,35.40
2023-10-30T00:04:13.174Z,38.46
2023-10-30T00:05:13.084Z,38.81
2023-10-30T00:06:13.149Z,38.12
2023-10-30T00:07:13.148Z,37.37
2023-10-30T00:08:13.237Z,36.09
2023-10-30T00:09:13.257Z,35.37
2023-10-30T00:10:13.209Z,35.35
2023-10-30T00:11:14.073Z,35.33
2023-10-30T00:12:13.092Z,35.39
2023-10-30T00:13:14.488Z,35.42
2023-10-30T00:14:13.734Z,35.45
2023-10-30T00:15:14.491Z,35.83
2023-10-30T00:16:13.090Z,37.83
2023-10-30T00:17:14.063Z,35.37
2023-10-30T00:18:13.757Z,35.37
2023-10-30T00:19:13.251Z,35.36
2023-10-30T00:20:12.995Z,35.53
2023-10-30T00:21:12.991Z,39.98
2023-10-30T00:22:13.024Z,35.46
2023-10-30T00:23:13.021Z,35.48
2023-10-30T00:24:13.689Z,35.51
2023-10-30T00:25:12.930Z,35.50
2023-10-30T00:26:12.954Z,35.51
2023-10-30T00:27:13.020Z,39.54
2023-10-30T00:28:13.731Z,35.90
2023-10-30T00:29:14.637Z,35.38
2023-10-30T00:30:12.861Z,35.37
2023-10-30T00:31:12.886Z,42.35
2023-10-30T00:32:12.844Z,35.61
2023-10-30T00:33:12.940Z,37.69
2023-10-30T00:34:12.897Z,35.26
2023-10-30T00:35:12.886Z,35.25
2023-10-30T00:36:12.860Z,35.29
2023-10-30T00:37:12.894Z,42.67
2023-10-30T00:38:13.674Z,35.47
2023-10-30T00:39:13.783Z,36.06
2023-10-30T00:40:12.837Z,36.67
2023-10-30T00:41:13.478Z,36.10
2023-10-30T00:42:12.937Z,35.39
2023-10-30T00:43:13.224Z,35.36
2023-10-30T00:44:12.838Z,35.31
2023-10-30T00:45:12.852Z,35.32
2023-10-30T00:46:12.857Z,35.36
2023-10-30T00:47:12.748Z,35.37
2023-10-30T00:48:13.333Z,35.41
2023-10-30T00:49:12.738Z,38.32
2023-10-30T00:50:12.724Z,35.43
2023-10-30T00:51:12.840Z,35.40
2023-10-30T00:52:13.483Z,37.93
2023-10-30T00:53:15.668Z,35.42
2023-10-30T00:54:13.737Z,35.44
2023-10-30T00:55:13.501Z,36.16
2023-10-30T00:56:12.963Z,37.58
2023-10-30T00:57:12.861Z,35.36
2023-10-30T00:58:13.162Z,35.35
2023-10-30T00:59:12.623Z,37.29
2023-10-30T01:00:12.760Z,35.52
2023-10-30T01:01:12.622Z,38.10
2023-10-30T01:02:12.700Z,35.51
2023-10-30T01:03:12.735Z,35.51
2023-10-30T01:04:12.750Z,35.39
2023-10-30T01:05:12.945Z,35.67
2023-10-30T01:06:12.720Z,37.15
2023-10-30T01:07:13.721Z,35.34
2023-10-30T01:23:57.980Z,35.44
2023-10-30T01:24:58.015Z,35.41
2023-10-30T01:25:57.967Z,35.43
2023-10-30T01:26:58.884Z,35.44
2023-10-30T01:27:58.436Z,35.44
2023-10-30T01:28:58.008Z,35.46
2023-10-30T01:29:58.069Z,35.43
2023-10-30T01:30:57.975Z,37.91
2023-10-30T01:31:58.049Z,35.48
2023-10-30T01:32:58.042Z,35.46
2023-10-30T01:33:58.008Z,35.44
2023-10-30T01:34:57.920Z,36.00
2023-10-30T01:35:57.906Z,38.82
2023-10-30T01:36:57.895Z,35.50
2023-10-30T01:37:57.939Z,35.49
2023-10-30T01:38:58.034Z,35.43
2023-10-30T01:39:57.996Z,35.45
2023-10-30T01:40:57.898Z,35.50
2023-10-30T01:41:57.895Z,35.50
2023-10-30T01:42:57.912Z,35.55
2023-10-30T01:43:57.894Z,35.67
2023-10-30T01:44:58.671Z,39.05
2023-10-30T01:45:57.854Z,35.45
2023-10-30T01:46:57.839Z,35.49
2023-10-30T01:48:31.278Z,35.29
2023-10-30T01:48:58.693Z,35.46
2023-10-30T01:50:30.306Z,35.24
2023-10-30T01:50:57.802Z,39.34
2023-10-30T01:51:57.759Z,35.50
2023-10-30T01:52:57.764Z,35.53
2023-10-30T01:53:57.769Z,35.55
2023-10-30T01:54:57.763Z,35.51
2023-10-30T01:55:57.741Z,35.56
2023-10-30T01:56:58.749Z,38.89
2023-10-30T01:57:57.731Z,35.52
2023-10-30T01:58:57.729Z,35.53
2023-10-30T01:59:57.763Z,35.50
2023-10-30T02:00:57.741Z,35.57
2023-10-30T02:01:57.708Z,35.60
2023-10-30T02:02:57.785Z,35.57
2023-10-30T02:03:57.764Z,38.67
2023-10-30T02:04:57.689Z,35.53
2023-10-30T02:05:57.780Z,35.54
2023-10-30T02:06:57.658Z,35.57
2023-10-30T02:07:57.656Z,39.20
2023-10-30T02:08:57.678Z,35.56
2023-10-30T02:09:57.648Z,35.53
2023-10-30T02:10:57.664Z,35.70
2023-10-30T02:11:57.621Z,35.57
2023-10-30T02:12:57.649Z,37.97
2023-10-30T02:13:57.630Z,35.75
2023-10-30T02:14:57.607Z,41.05
2023-10-30T02:15:57.895Z,35.70
2023-10-30T02:16:57.608Z,35.59
2023-10-30T02:17:57.632Z,35.57
2023-10-30T02:18:57.583Z,35.61
2023-10-30T02:19:57.548Z,35.56
2023-10-30T02:20:57.566Z,38.37
2023-10-30T02:21:57.589Z,38.43
2023-10-30T02:22:57.571Z,35.55
2023-10-30T02:23:57.517Z,35.64
2023-10-30T02:24:57.550Z,38.40
2023-10-30T02:25:57.515Z,35.78
2023-10-30T02:26:57.507Z,35.72
2023-10-30T02:27:57.527Z,35.59
2023-10-30T02:28:57.529Z,38.20
2023-10-30T02:29:57.482Z,35.73
2023-10-30T02:30:57.479Z,37.96
2023-10-30T02:31:57.472Z,35.52
2023-10-30T02:32:57.525Z,35.56
2023-10-30T02:33:57.588Z,38.98
2023-10-30T02:34:57.467Z,35.85
2023-10-30T02:35:57.556Z,36.21
2023-10-30T02:36:57.432Z,37.92
2023-10-30T02:37:57.512Z,35.58
2023-10-30T02:38:57.404Z,35.60
2023-10-30T02:39:57.416Z,35.68
2023-10-30T02:40:57.409Z,35.83
2023-10-30T02:41:57.397Z,35.72
2023-10-30T02:42:57.389Z,35.73
2023-10-30T02:43:57.396Z,40.13
2023-10-30T02:44:57.405Z,35.85
2023-10-30T02:45:57.479Z,37.90
2023-10-30T02:46:57.359Z,35.61
2023-10-30T02:47:57.373Z,36.46
2023-10-30T02:48:57.380Z,37.52
2023-10-30T02:49:57.346Z,41.23
2023-10-30T02:50:57.335Z,35.77
2023-10-30T02:51:57.341Z,36.91
2023-10-30T02:52:57.289Z,39.82
2023-10-30T02:53:57.973Z,36.05
2023-10-30T02:54:57.332Z,37.77
2023-10-30T02:55:57.323Z,36.05
2023-10-30T02:56:57.855Z,38.36
2023-10-30T02:57:57.280Z,41.67
2023-10-30T02:58:57.275Z,35.70
2023-10-30T02:59:57.251Z,35.62
2023-10-30T03:00:57.271Z,39.00
2023-10-30T03:01:57.236Z,35.85
2023-10-30T03:02:57.372Z,35.62
2023-10-30T03:03:57.413Z,37.47
2023-10-30T03:04:58.349Z,40.15
2023-10-30T03:05:57.236Z,35.59
2023-10-30T03:06:57.212Z,35.55
2023-10-30T03:07:57.204Z,37.23
2023-10-30T03:08:57.172Z,36.10
2023-10-30T03:09:57.187Z,35.59
2023-10-30T03:10:57.157Z,35.68
2023-10-30T03:11:57.186Z,39.91
2023-10-30T03:12:57.173Z,38.09
2023-10-30T03:13:57.158Z,41.71
2023-10-30T03:14:57.204Z,38.03
2023-10-30T03:15:57.190Z,35.60
2023-10-30T03:16:57.128Z,35.53
2023-10-30T03:17:57.158Z,35.55
2023-10-30T03:18:57.102Z,35.55
2023-10-30T03:20:31.364Z,35.40
2023-10-30T03:20:57.079Z,35.81
2023-10-30T03:21:57.964Z,37.88
2023-10-30T03:22:57.875Z,35.55
2023-10-30T03:23:57.962Z,35.54
2023-10-30T03:24:57.038Z,38.40
2023-10-30T03:25:57.039Z,35.54
2023-10-30T03:26:57.023Z,35.62
2023-10-30T03:27:57.984Z,38.69
2023-10-30T03:28:57.059Z,37.80
2023-10-30T03:29:57.032Z,38.52
2023-10-30T03:30:57.011Z,39.86
2023-10-30T03:31:57.888Z,35.89
2023-10-30T03:32:57.032Z,41.70
2023-10-30T03:33:57.167Z,36.74
2023-10-30T03:34:57.006Z,40.89
2023-10-30T03:35:57.004Z,44.70
2023-10-30T03:36:56.958Z,35.69
2023-10-30T03:37:56.953Z,38.85
2023-10-30T03:38:56.970Z,40.08
2023-10-30T03:39:57.813Z,35.75
2023-10-30T03:40:57.069Z,43.41
2023-10-30T03:41:57.030Z,37.37
2023-10-30T03:42:57.464Z,37.93
2023-10-30T03:43:56.923Z,37.41
2023-10-30T03:44:56.955Z,39.65
2023-10-30T03:45:56.944Z,35.62
2023-10-30T03:46:56.878Z,40.43
2023-10-30T03:47:56.877Z,40.72
2023-10-30T04:05:02.816Z,35.82
2023-10-30T04:06:04.503Z,34.38
2023-10-30T04:07:03.941Z,37.82
2023-10-30T04:08:03.977Z,36.25
2023-10-30T04:09:03.993Z,34.53
2023-10-30T04:10:03.967Z,36.51
2023-10-30T04:11:03.943Z,34.77
2023-10-30T04:12:03.997Z,36.58
2023-10-30T04:13:03.973Z,37.16
2023-10-30T04:14:03.924Z,35.07
2023-10-30T04:15:03.925Z,36.82
2023-10-30T04:16:03.936Z,35.85
2023-10-30T04:17:04.087Z,35.50
2023-10-30T04:18:03.902Z,35.30
2023-10-30T04:19:04.549Z,36.68
2023-10-30T04:20:03.861Z,35.90
2023-10-30T04:21:03.920Z,36.09
2023-10-30T04:22:04.042Z,37.85
2023-10-30T04:23:04.576Z,37.87
2023-10-30T04:24:04.560Z,37.52
2023-10-30T04:25:03.814Z,36.41
2023-10-30T04:26:03.862Z,35.54
2023-10-30T04:27:03.878Z,37.51
2023-10-30T04:28:03.967Z,36.68
2023-10-30T04:29:03.780Z,36.55
2023-10-30T04:30:03.776Z,38.83
2023-10-30T04:31:03.771Z,37.31
2023-10-30T04:32:03.797Z,39.21
2023-10-30T04:33:03.784Z,36.80
2023-10-30T04:34:03.731Z,38.73
2023-10-30T04:35:03.779Z,41.25
2023-10-30T04:36:03.814Z,36.08
2023-10-30T04:37:03.753Z,42.50
2023-10-30T04:38:03.745Z,41.03
2023-10-30T04:39:03.726Z,39.05
2023-10-30T04:40:03.725Z,39.27
2023-10-30T04:41:03.755Z,43.06
2023-10-30T04:42:03.787Z,41.95
2023-10-30T04:43:04.592Z,40.20
2023-10-30T04:44:03.729Z,42.58
2023-10-30T04:45:03.648Z,41.68
2023-10-30T04:46:03.684Z,43.70
2023-10-30T04:47:03.689Z,42.60
2023-10-30T04:48:03.672Z,40.38
2023-10-30T04:49:04.628Z,39.15
2023-10-30T04:50:04.104Z,40.69
2023-10-30T04:51:03.664Z,38.65
2023-10-30T04:52:03.740Z,38.29
2023-10-30T04:53:04.504Z,41.76
2023-10-30T04:54:03.630Z,41.93
2023-10-30T04:55:03.586Z,40.66
2023-10-30T04:56:03.733Z,40.90
2023-10-30T04:57:03.625Z,41.15
2023-10-30T04:58:03.607Z,42.01
2023-10-30T04:59:03.577Z,43.81
2023-10-30T05:00:03.560Z,37.49
2023-10-30T05:01:03.564Z,39.53
2023-10-30T05:02:03.577Z,44.24
2023-10-30T05:03:03.614Z,36.56
2023-10-30T05:04:04.107Z,42.04
2023-10-30T05:05:03.533Z,37.36
2023-10-30T05:06:03.539Z,42.10
2023-10-30T05:07:03.515Z,41.50
2023-10-30T05:08:03.519Z,42.12
2023-10-30T05:09:03.494Z,46.56
2023-10-30T05:10:04.489Z,41.22
2023-10-30T05:11:03.473Z,44.24
2023-10-30T05:12:03.496Z,42.02
2023-10-30T05:13:03.432Z,40.82
2023-10-30T05:14:03.438Z,46.16
2023-10-30T05:15:03.438Z,40.22
2023-10-30T05:16:04.096Z,44.62
2023-10-30T05:17:03.444Z,36.38
2023-10-30T05:18:03.408Z,42.69
2023-10-30T05:19:03.420Z,44.29
2023-10-30T05:20:03.385Z,46.07
2023-10-30T05:21:03.390Z,43.42
2023-10-30T05:22:03.395Z,43.87
2023-10-30T05:23:03.513Z,42.45
2023-10-30T05:24:03.390Z,41.53
2023-10-30T05:25:03.420Z,41.98
2023-10-30T05:26:04.059Z,41.12
2023-10-30T05:27:04.062Z,43.28
2023-10-30T05:28:03.402Z,44.73
2023-10-30T05:29:03.360Z,45.81
2023-10-30T05:30:04.097Z,41.67
2023-10-30T05:31:03.442Z,38.42
2023-10-30T05:32:03.332Z,49.63
2023-10-30T05:33:03.297Z,42.13
2023-10-30T05:34:04.050Z,46.52
2023-10-30T05:35:03.300Z,43.33
2023-10-30T05:36:03.308Z,49.43
2023-10-30T05:37:04.005Z,42.82
2023-10-30T05:38:03.261Z,46.02
2023-10-30T05:39:03.261Z,45.44
2023-10-30T05:40:03.480Z,46.85
2023-10-30T05:41:03.866Z,47.97
2023-10-30T05:42:03.857Z,46.02
2023-10-30T05:43:03.252Z,47.34
2023-10-30T05:44:03.180Z,45.61
2023-10-30T05:45:03.306Z,47.61
2023-10-30T05:46:03.240Z,44.50
2023-10-30T05:47:03.172Z,44.17
2023-10-30T05:48:03.922Z,47.25
2023-10-30T05:49:03.191Z,44.33
2023-10-30T05:50:03.222Z,44.20
2023-10-30T05:51:03.165Z,48.06
2023-10-30T05:52:03.188Z,45.94
2023-10-30T05:53:03.130Z,47.29
2023-10-30T05:54:03.117Z,46.45
2023-10-30T05:55:03.204Z,45.44
2023-10-30T05:56:03.185Z,46.81
2023-10-30T05:57:03.152Z,45.61
2023-10-30T05:58:03.141Z,45.66
2023-10-30T05:59:03.076Z,44.71
2023-10-30T06:00:03.124Z,44.02
2023-10-30T06:01:03.052Z,47.30
2023-10-30T06:02:03.076Z,44.56
2023-10-30T06:03:03.184Z,47.07
2023-10-30T06:04:03.142Z,47.54
2023-10-30T06:05:03.022Z,47.16
2023-10-30T06:06:03.039Z,49.76
2023-10-30T06:07:03.033Z,44.95
2023-10-30T06:08:03.560Z,46.16
2023-10-30T06:09:03.002Z,45.50
2023-10-30T06:10:02.956Z,44.93
2023-10-30T06:11:02.998Z,45.91
2023-10-30T06:12:03.051Z,49.61
2023-10-30T06:13:02.966Z,45.63
2023-10-30T06:14:02.937Z,46.52
2023-10-30T06:15:03.581Z,51.47
2023-10-30T06:16:02.955Z,50.50
2023-10-30T06:17:02.950Z,48.99
2023-10-30T06:18:03.091Z,50.81
2023-10-30T06:19:02.911Z,47.59
2023-10-30T06:20:02.945Z,46.91
2023-10-30T06:21:03.039Z,50.22
2023-10-30T06:22:03.579Z,50.55
2023-10-30T06:23:03.651Z,49.25
2023-10-30T06:24:02.943Z,49.22
2023-10-30T06:25:02.883Z,48.62
2023-10-30T06:26:02.889Z,48.37
2023-10-30T06:27:02.873Z,49.60
2023-10-30T06:28:02.838Z,50.22
2023-10-30T06:29:02.911Z,45.57
2023-10-30T06:30:03.346Z,44.02
2023-10-30T06:31:02.888Z,48.02
2023-10-30T06:32:02.909Z,47.02
2023-10-30T06:33:02.958Z,46.89
2023-10-30T06:34:03.573Z,49.97
2023-10-30T06:35:02.856Z,48.98
2023-10-30T06:36:03.649Z,50.16
2023-10-30T06:37:03.447Z,43.56
2023-10-30T06:38:02.815Z,46.57
2023-10-30T06:39:02.771Z,49.04
2023-10-30T06:40:02.751Z,47.71
2023-10-30T06:41:02.761Z,50.34
2023-10-30T06:42:02.783Z,46.01
2023-10-30T06:43:02.752Z,45.43
2023-10-30T06:44:02.736Z,45.88
2023-10-30T06:45:02.733Z,48.56
2023-10-30T06:46:02.724Z,51.22
2023-10-30T06:47:02.703Z,49.44
2023-10-30T06:48:03.545Z,46.24
2023-10-30T06:49:02.708Z,51.06
2023-10-30T06:50:02.713Z,47.62
2023-10-30T06:51:02.650Z,50.74
2023-10-30T06:52:02.716Z,46.84
2023-10-30T06:53:02.694Z,46.33
2023-10-30T06:54:04.049Z,50.63
2023-10-30T06:55:03.684Z,48.53
2023-10-30T06:56:02.682Z,46.37
2023-10-30T06:57:03.533Z,48.13
2023-10-30T06:58:02.632Z,46.81
2023-10-30T06:59:02.621Z,45.65
2023-10-30T07:00:02.653Z,47.06
2023-10-30T07:01:03.730Z,46.88
2023-10-30T07:02:03.576Z,48.76
2023-10-30T07:03:02.662Z,47.75
2023-10-30T07:04:02.631Z,44.38
2023-10-30T07:05:02.527Z,49.38
2023-10-30T07:06:02.558Z,49.52
2023-10-30T07:07:02.618Z,46.61
2023-10-30T07:08:03.564Z,47.31
2023-10-30T07:09:03.131Z,50.40
2023-10-30T07:10:03.079Z,46.30
2023-10-30T07:11:03.178Z,41.62
2023-10-30T07:12:02.668Z,47.21
2023-10-30T07:13:02.547Z,45.57
2023-10-30T07:14:02.592Z,51.90
2023-10-30T07:15:02.546Z,47.06
2023-10-30T07:16:02.472Z,46.17
2023-10-30T07:17:05.021Z,47.01
2023-10-30T07:18:02.473Z,49.83
2023-10-30T07:19:02.479Z,46.95
2023-10-30T07:20:02.431Z,42.88
2023-10-30T07:21:02.543Z,46.58
2023-10-30T07:22:02.549Z,51.09
2023-10-30T07:23:02.539Z,49.85
2023-10-30T07:24:02.980Z,50.21
2023-10-30T07:25:02.444Z,47.58
2023-10-30T07:26:03.104Z,45.89
2023-10-30T07:27:02.451Z,48.41
2023-10-30T07:28:03.020Z,48.99
2023-10-30T07:29:02.370Z,48.63
2023-10-30T07:30:02.373Z,43.65
2023-10-30T07:31:02.427Z,44.84
2023-10-30T07:32:02.348Z,43.60
2023-10-30T07:33:02.409Z,50.00
2023-10-30T07:34:02.323Z,44.87
2023-10-30T07:35:02.358Z,48.48
2023-10-30T07:36:02.877Z,46.59
2023-10-30T07:37:02.331Z,46.78
2023-10-30T07:38:02.345Z,53.26
2023-10-30T07:39:03.679Z,44.09
2023-10-30T07:40:03.040Z,47.50
2023-10-30T07:41:03.183Z,49.44
2023-10-30T07:42:02.332Z,48.48
2023-10-30T07:43:02.329Z,46.29
2023-10-30T07:44:02.292Z,52.10
2023-10-30T07:45:02.288Z,50.36
2023-10-30T07:46:02.373Z,44.73
2023-10-30T07:47:02.425Z,44.48
2023-10-30T07:48:02.344Z,43.28
2023-10-30T07:49:03.093Z,44.87
2023-10-30T07:50:02.222Z,47.86
2023-10-30T07:51:02.248Z,49.60
2023-10-30T07:52:02.349Z,41.68
2023-10-30T07:53:03.139Z,50.67
2023-10-30T07:54:02.241Z,47.40
2023-10-30T07:55:02.194Z,49.97
2023-10-30T07:56:02.161Z,45.70
2023-10-30T07:57:02.137Z,47.23
2023-10-30T07:58:02.178Z,47.21
2023-10-30T07:59:02.176Z,45.15
2023-10-30T08:00:03.068Z,51.33
2023-10-30T08:01:02.391Z,46.23
2023-10-30T08:02:02.223Z,47.16
2023-10-30T08:03:02.968Z,43.85
2023-10-30T08:04:02.949Z,49.80
2023-10-30T08:05:02.208Z,46.85
2023-10-30T08:06:03.014Z,50.03
2023-10-30T08:07:02.215Z,49.83
2023-10-30T08:08:02.098Z,47.48
2023-10-30T08:09:02.112Z,46.78
2023-10-30T08:10:02.072Z,48.93
2023-10-30T08:11:02.235Z,43.91
2023-10-30T08:12:02.073Z,47.65
2023-10-30T08:13:02.092Z,50.95
2023-10-30T08:14:03.140Z,48.59
2023-10-30T08:15:02.868Z,46.52
2023-10-30T08:16:02.005Z,48.73
2023-10-30T08:17:03.004Z,45.15
2023-10-30T08:18:02.106Z,48.04
2023-10-30T08:19:02.075Z,47.96
2023-10-30T08:20:01.998Z,52.20
2023-10-30T08:21:07.785Z,48.42
2023-10-30T08:22:04.016Z,50.11
2023-10-30T08:23:01.995Z,44.65
2023-10-30T08:24:01.946Z,46.71
2023-10-30T08:25:01.969Z,46.49
2023-10-30T08:26:01.945Z,37.65
2023-10-30T08:27:01.992Z,51.36
2023-10-30T08:28:02.871Z,50.14
2023-10-30T08:29:01.918Z,47.72
2023-10-30T08:30:02.077Z,46.22
2023-10-30T08:31:02.982Z,48.68
2023-10-30T08:32:02.025Z,47.09
2023-10-30T08:33:01.909Z,45.35
2023-10-30T08:34:01.937Z,45.58
2023-10-30T08:35:01.852Z,48.53
2023-10-30T08:36:01.864Z,50.86
2023-10-30T08:37:01.890Z,45.75
2023-10-30T08:38:01.884Z,45.67
2023-10-30T08:39:34.563Z,46.88
2023-10-30T08:40:01.930Z,51.47
2023-10-30T08:41:01.830Z,46.69
2023-10-30T08:42:01.806Z,50.76
2023-10-30T08:43:01.771Z,45.33
2023-10-30T08:44:01.757Z,51.27
2023-10-30T08:45:01.753Z,46.99
2023-10-30T08:46:02.791Z,46.12
2023-10-30T08:47:01.781Z,52.43
2023-10-30T08:48:17.415Z,52.29
2023-10-30T08:49:03.812Z,50.16
2023-10-30T08:50:01.720Z,47.71
2023-10-30T08:51:01.740Z,46.60
2023-10-30T08:52:04.791Z,46.20
2023-10-30T08:53:02.732Z,51.26
2023-10-30T08:54:01.715Z,48.05
2023-10-30T08:55:03.202Z,45.92
2023-10-30T08:56:03.406Z,47.32
2023-10-30T08:57:14.431Z,46.05
2023-10-30T08:58:03.680Z,44.91
2023-10-30T08:59:01.682Z,52.30
2023-10-30T09:00:01.641Z,44.34
2023-10-30T09:01:01.640Z,45.10
2023-10-30T09:02:02.634Z,44.88
2023-10-30T09:03:01.739Z,48.90
2023-10-30T09:04:01.725Z,42.65
2023-10-30T09:05:01.891Z,45.85
2023-10-30T09:06:01.708Z,48.32
2023-10-30T09:07:01.615Z,49.37
2023-10-30T09:08:01.598Z,49.61
2023-10-30T09:09:01.607Z,37.90
2023-10-30T09:10:01.624Z,50.99
2023-10-30T09:11:01.582Z,49.06
2023-10-30T09:12:01.578Z,47.12
2023-10-30T09:13:01.598Z,47.10
2023-10-30T09:14:01.557Z,48.47
2023-10-30T09:15:01.558Z,51.12
2023-10-30T09:16:01.618Z,50.68
2023-10-30T09:17:01.529Z,47.37
2023-10-30T09:18:01.558Z,50.24
2023-10-30T09:19:02.042Z,48.12
2023-10-30T09:20:01.512Z,42.92
2023-10-30T09:21:01.507Z,42.90
2023-10-30T09:22:01.561Z,53.71
2023-10-30T09:23:01.493Z,48.16
2023-10-30T09:24:01.479Z,43.76
2023-10-30T09:25:01.514Z,50.28
2023-10-30T09:26:01.466Z,50.99
2023-10-30T09:27:01.452Z,48.08
2023-10-30T09:28:01.534Z,47.01
2023-10-30T09:29:01.434Z,47.91
2023-10-30T09:30:01.420Z,47.68
2023-10-30T09:31:01.459Z,47.48
2023-10-30T09:32:01.400Z,52.14
2023-10-30T09:33:01.433Z,43.10
2023-10-30T09:34:01.442Z,49.01
2023-10-30T09:35:01.407Z,47.50
2023-10-30T09:36:01.391Z,48.69
2023-10-30T09:37:01.348Z,53.03
2023-10-30T09:38:02.094Z,46.29
2023-10-30T09:39:01.450Z,48.52
2023-10-30T09:40:04.868Z,48.72
2023-10-30T09:41:01.345Z,49.02
2023-10-30T09:42:01.333Z,43.92
2023-10-30T09:43:01.360Z,49.68
2023-10-30T09:44:01.315Z,46.62
2023-10-30T09:45:01.331Z,47.71
2023-10-30T09:46:01.403Z,49.78
2023-10-30T09:47:01.261Z,51.95
2023-10-30T09:48:01.333Z,43.09
2023-10-30T09:49:01.311Z,45.46
2023-10-30T09:50:01.277Z,49.64
2023-10-30T09:51:01.228Z,48.73
2023-10-30T09:52:01.275Z,41.38
2023-10-30T09:53:01.233Z,49.11
2023-10-30T09:54:01.255Z,42.08
2023-10-30T09:55:01.283Z,48.47
2023-10-30T09:56:01.217Z,50.99
2023-10-30T09:57:01.201Z,44.77
2023-10-30T09:58:01.264Z,41.59
2023-10-30T09:59:01.196Z,51.07
2023-10-30T10:00:02.223Z,48.12
2023-10-30T10:01:01.352Z,45.75
2023-10-30T10:02:01.201Z,50.20
2023-10-30T10:03:01.338Z,50.53
2023-10-30T10:04:01.368Z,44.18
2023-10-30T10:05:01.137Z,51.06
2023-10-30T10:06:01.157Z,43.33
2023-10-30T10:07:01.157Z,48.04
2023-10-30T10:08:01.123Z,46.84
2023-10-30T10:09:01.109Z,42.34
2023-10-30T10:10:01.180Z,46.10
2023-10-30T10:11:01.096Z,45.22
2023-10-30T10:12:01.074Z,51.63
2023-10-30T10:13:01.225Z,51.02
2023-10-30T10:14:05.985Z,49.62
2023-10-30T10:15:03.160Z,52.02
2023-10-30T10:16:01.121Z,42.16
2023-10-30T10:17:01.291Z,49.09
2023-10-30T10:18:02.108Z,48.21
2023-10-30T10:19:01.105Z,45.97
2023-10-30T10:20:01.040Z,49.14
2023-10-30T10:21:01.026Z,53.25
2023-10-30T10:22:01.031Z,44.16
2023-10-30T10:23:01.000Z,44.22
2023-10-30T10:24:01.022Z,46.09
2023-10-30T10:25:01.014Z,41.71
2023-10-30T10:26:00.977Z,50.29
2023-10-30T10:27:00.974Z,49.63
2023-10-30T10:28:00.978Z,50.37
2023-10-30T10:29:00.953Z,41.86
2023-10-30T10:30:00.984Z,50.93
2023-10-30T10:31:00.999Z,40.75
2023-10-30T10:32:00.929Z,43.22
2023-10-30T10:33:00.959Z,48.15
2023-10-30T10:34:00.993Z,48.07
2023-10-30T10:35:00.933Z,46.42
2023-10-30T10:36:00.933Z,48.89
2023-10-30T10:37:01.029Z,48.75
2023-10-30T10:38:01.231Z,45.31
2023-10-30T10:39:00.885Z,44.68
2023-10-30T10:40:01.561Z,51.48
2023-10-30T10:41:00.848Z,44.81
2023-10-30T10:42:00.933Z,45.35
2023-10-30T10:43:00.857Z,46.86
2023-10-30T10:44:00.861Z,44.46
2023-10-30T10:45:00.822Z,47.58
2023-10-30T10:46:01.921Z,46.46
2023-10-30T10:47:00.826Z,41.99
2023-10-30T10:48:00.849Z,48.26
2023-10-30T10:49:00.863Z,45.69
2023-10-30T10:50:00.832Z,44.63
2023-10-30T10:51:00.768Z,45.29
2023-10-30T10:52:00.787Z,50.27
2023-10-30T10:53:00.778Z,43.88
2023-10-30T10:54:00.775Z,46.47
2023-10-30T10:55:00.841Z,48.86
2023-10-30T10:56:00.721Z,45.80
2023-10-30T10:57:00.744Z,45.32
2023-10-30T10:58:00.787Z,52.05
2023-10-30T10:59:00.741Z,45.69
2023-10-30T11:00:00.722Z,43.66
2023-10-30T11:01:00.790Z,47.22
2023-10-30T11:02:00.708Z,50.13
2023-10-30T11:03:00.809Z,45.16
2023-10-30T11:04:00.774Z,47.54
2023-10-30T11:05:00.761Z,48.64
2023-10-30T11:06:00.680Z,50.06
2023-10-30T11:07:00.722Z,44.46
2023-10-30T11:08:00.685Z,46.35
2023-10-30T11:09:00.647Z,48.98
2023-10-30T11:10:00.682Z,47.83
2023-10-30T11:11:01.602Z,45.12
2023-10-30T11:12:00.642Z,46.17
2023-10-30T11:13:00.700Z,43.18
2023-10-30T11:14:00.642Z,46.86
2023-10-30T11:15:00.588Z,48.95
2023-10-30T11:16:00.658Z,42.38
2023-10-30T11:17:00.579Z,47.23
2023-10-30T11:18:00.624Z,42.87
2023-10-30T11:19:00.595Z,44.16
2023-10-30T11:20:00.578Z,43.54
2023-10-30T11:21:00.576Z,47.60
2023-10-30T11:22:00.607Z,47.90
2023-10-30T11:23:00.538Z,46.71
2023-10-30T11:24:03.187Z,45.96
2023-10-30T11:25:01.577Z,41.41
2023-10-30T11:26:00.495Z,42.94
2023-10-30T11:27:00.508Z,49.24
2023-10-30T11:28:00.531Z,43.28
2023-10-30T11:29:00.481Z,44.91
2023-10-30T11:30:00.506Z,41.62
2023-10-30T11:31:00.575Z,44.99
2023-10-30T11:32:00.529Z,42.96
2023-10-30T11:33:00.469Z,46.88
2023-10-30T11:34:00.467Z,43.78
2023-10-30T11:35:00.506Z,42.72
2023-10-30T11:36:00.429Z,46.12
2023-10-30T11:37:00.455Z,45.33
2023-10-30T11:38:00.420Z,47.78
2023-10-30T11:39:00.414Z,45.98
2023-10-30T11:40:00.529Z,42.48
2023-10-30T11:41:00.394Z,47.40
2023-10-30T11:42:00.384Z,44.57
2023-10-30T11:43:00.387Z,43.47
2023-10-30T11:44:00.376Z,47.99
2023-10-30T11:45:00.388Z,49.49
2023-10-30T11:46:00.390Z,50.09
2023-10-30T11:47:00.357Z,45.05
2023-10-30T11:48:00.450Z,41.83
2023-10-30T11:49:00.434Z,40.44
2023-10-30T11:50:00.377Z,46.14
2023-10-30T11:51:00.324Z,40.37
2023-10-30T11:52:00.383Z,44.74
2023-10-30T11:53:00.329Z,47.10
2023-10-30T11:54:00.300Z,46.96
2023-10-30T11:55:00.331Z,45.84
2023-10-30T11:56:00.268Z,43.36
2023-10-30T11:57:00.312Z,45.42
2023-10-30T11:58:00.304Z,49.53
2023-10-30T11:59:01.236Z,39.68
2023-10-30T12:00:00.250Z,47.49
2023-10-30T12:01:00.304Z,46.77
2023-10-30T12:02:00.349Z,44.99
2023-10-30T12:03:00.239Z,45.40
2023-10-30T12:04:00.346Z,41.05
2023-10-30T12:05:00.371Z,45.64
2023-10-30T12:06:00.228Z,42.28
2023-10-30T12:07:00.242Z,46.29
2023-10-30T12:08:00.222Z,46.47
2023-10-30T12:09:00.190Z,45.10
2023-10-30T12:10:00.270Z,44.96
2023-10-30T12:11:00.173Z,46.65
2023-10-30T12:12:00.160Z,47.93
2023-10-30T12:13:00.271Z,43.38
2023-10-30T12:14:00.151Z,44.20
2023-10-30T12:15:00.182Z,45.78
2023-10-30T12:16:00.189Z,49.59
2023-10-30T12:17:00.134Z,40.16
2023-10-30T12:18:00.181Z,46.87
2023-10-30T12:19:00.132Z,44.06
2023-10-30T12:20:00.147Z,38.41
2023-10-30T12:21:00.089Z,43.24
2023-10-30T12:22:00.106Z,47.59
2023-10-30T12:23:00.109Z,43.71
2023-10-30T12:24:00.053Z,47.16
2023-10-30T12:25:00.318Z,43.77
2023-10-30T12:26:00.061Z,44.89
2023-10-30T12:27:00.030Z,44.65
2023-10-30T12:28:00.078Z,46.77
2023-10-30T12:29:00.014Z,41.58
2023-10-30T12:30:00.039Z,42.94
2023-10-30T12:31:00.112Z,46.01
2023-10-30T12:32:00.009Z,47.31
2023-10-30T12:33:00.681Z,45.84
2023-10-30T12:34:00.042Z,45.11
2023-10-30T12:34:59.980Z,44.88
2023-10-30T12:35:59.991Z,44.86
2023-10-30T12:37:00.006Z,47.09
2023-10-30T12:38:00.056Z,43.43
2023-10-30T12:38:59.956Z,43.01
2023-10-30T12:39:59.933Z,46.39
2023-10-30T12:40:59.935Z,44.41
2023-10-30T12:41:59.940Z,42.20
2023-10-30T12:42:59.963Z,44.88
2023-10-30T12:43:59.906Z,45.54
2023-10-30T12:45:34.035Z,47.84
2023-10-30T12:46:00.684Z,44.93
2023-10-30T12:46:59.873Z,45.38
2023-10-30T12:47:59.904Z,43.73
2023-10-30T12:48:59.958Z,47.99
2023-10-30T12:49:59.859Z,44.98
2023-10-30T12:50:59.900Z,45.69
2023-10-30T12:51:59.832Z,42.86
2023-10-30T12:53:00.508Z,43.23
2023-10-30T12:53:59.822Z,43.37
2023-10-30T12:54:59.826Z,43.16
2023-10-30T12:55:59.835Z,47.11
2023-10-30T12:56:59.856Z,41.28
2023-10-30T12:57:59.889Z,44.31
2023-10-30T12:58:59.805Z,43.59
2023-10-30T12:59:59.796Z,45.92
2023-10-30T13:02:00.853Z,44.68
2023-10-30T13:02:59.915Z,46.10
2023-10-30T13:03:59.891Z,43.56
2023-10-30T13:04:59.878Z,46.40
2023-10-30T13:05:59.812Z,46.04
2023-10-30T13:07:00.807Z,40.11
2023-10-30T13:08:00.517Z,46.19
2023-10-30T13:08:59.737Z,46.68
2023-10-30T13:09:59.836Z,45.22
2023-10-30T13:11:01.677Z,44.37
2023-10-30T13:11:59.792Z,46.37
2023-10-30T13:13:00.324Z,47.81
2023-10-30T13:13:59.746Z,41.92
2023-10-30T13:14:59.759Z,44.26
2023-10-30T13:15:59.778Z,48.56
2023-10-30T13:16:59.662Z,44.79
2023-10-30T13:17:59.713Z,43.91
2023-10-30T13:18:59.692Z,44.16
2023-10-30T13:20:00.231Z,45.46
2023-10-30T13:20:59.636Z,47.46
2023-10-30T13:22:00.584Z,47.97
2023-10-30T13:22:59.655Z,42.23
2023-10-30T13:23:59.673Z,47.55
2023-10-30T13:24:59.693Z,48.34